Time;durP1;ratioP1;P1;durP2;ratioP2;P2;SDS_P1;SDS_P2;PMS_P1;PMS_P2;Temp;Humidity;BMP_temperature;BMP_pressure;BME280_temperature;BME280_humidity;BME280_pressure;Samples;Min_cycle;Max_cycle;Signal;HPM_P1;HPM_P2
2023/10/17 00:00:45;;;;;;;6.68;2.40;;;;;;;6.29;94.20;95210.31;5018949;28;20105;-76
2023/10/17 00:03:12;;;;;;;6.10;2.70;;;;;;;6.24;94.37;95217.63;4986337;28;20112;-76
2023/10/17 00:05:41;;;;;;;7.30;2.53;;;;;;;6.19;94.64;95204.38;5001810;28;20021;-76
2023/10/17 00:08:09;;;;;;;3.53;1.95;;;;;;;6.15;95.11;95208.16;4989384;28;20022;-76
2023/10/17 00:10:43;;;;;;;3.50;2.40;;;;;;;6.20;95.09;95205.97;4981655;28;20099;-77
2023/10/17 00:13:25;;;;;;;3.08;1.80;;;;;;;6.15;95.73;95213.31;5023294;28;20037;-76
2023/10/17 00:15:52;;;;;;;5.10;1.92;;;;;;;6.03;95.93;95204.13;5006211;28;20029;-77
2023/10/17 00:18:20;;;;;;;6.00;2.22;;;;;;;6.03;96.24;95204.13;5004512;28;20029;-76
2023/10/17 00:20:46;;;;;;;6.00;1.92;;;;;;;6.09;96.68;95198.44;5006553;28;20553;-77
2023/10/17 00:23:15;;;;;;;3.65;2.33;;;;;;;6.01;96.74;95198.28;5004406;28;20029;-77
2023/10/17 00:25:51;;;;;;;5.75;2.25;;;;;;;5.93;97.26;95200.75;5006539;28;20120;-77
2023/10/17 00:28:20;;;;;;;9.90;2.33;;;;;;;5.83;97.65;95183.56;5005563;28;20103;-75
2023/10/17 00:30:49;;;;;;;7.28;2.65;;;;;;;5.78;97.62;95190.03;5004887;28;20018;-78
2023/10/17 00:33:20;;;;;;;6.38;2.28;;;;;;;5.68;97.51;95179.75;4989304;28;20061;-77
2023/10/17 00:35:46;;;;;;;4.93;2.35;;;;;;;5.68;97.13;95182.31;5005032;28;20039;-76
2023/10/17 00:38:15;;;;;;;2.60;2.25;;;;;;;5.67;96.83;95185.84;5005453;28;20060;-76
2023/10/17 00:40:51;;;;;;;3.90;2.40;;;;;;;5.56;97.75;95185.97;4982702;28;20100;-76
2023/10/17 00:43:17;;;;;;;3.75;2.15;;;;;;;5.49;98.12;95191.81;5006282;28;20117;-76
2023/10/17 00:45:47;;;;;;;9.02;3.00;;;;;;;5.61;97.40;95188.16;5000089;28;20242;-77
2023/10/17 00:48:19;;;;;;;5.57;2.63;;;;;;;5.62;97.95;95195.72;5004625;28;20025;-76
2023/10/17 00:50:47;;;;;;;6.65;3.00;;;;;;;5.61;97.99;95188.97;4973370;28;20033;-76
2023/10/17 00:53:14;;;;;;;7.20;2.75;;;;;;;5.71;98.52;95176.13;5004246;28;20395;-76
2023/10/17 00:55:49;;;;;;;3.78;2.63;;;;;;;5.76;98.71;95176.50;5005464;28;20610;-76
2023/10/17 00:58:14;;;;;;;3.53;2.72;;;;;;;5.34;100.00;95173.38;5009258;28;20095;-77
2023/10/17 01:00:45;;;;;;;3.90;2.40;;;;;;;5.46;100.00;95174.88;5010025;28;20036;-76
2023/10/17 01:03:10;;;;;;;3.58;2.65;;;;;;;5.33;100.00;95174.31;5006384;28;20036;-74
2023/10/17 01:06:10;;;;;;;6.32;3.13;;;;;;;5.37;100.00;95177.44;5003452;28;20029;-75
2023/10/17 01:08:44;;;;;;;4.55;3.03;;;;;;;5.48;100.00;95177.31;4996231;28;20507;-75
2023/10/17 01:11:32;;;;;;;5.30;2.85;;;;;;;5.61;100.00;95167.59;5005556;28;20503;-77
2023/10/17 01:13:57;;;;;;;7.45;3.10;;;;;;;5.68;100.00;95177.19;5006736;28;20038;-77
2023/10/17 01:16:26;;;;;;;5.15;2.90;;;;;;;5.69;100.00;95176.25;5004545;28;20064;-76
2023/10/17 01:18:53;;;;;;;7.93;2.88;;;;;;;5.72;100.00;95175.97;5003884;28;20030;-76
2023/10/17 01:21:19;;;;;;;9.93;2.95;;;;;;;5.81;100.00;95172.59;5022628;28;20460;-76
2023/10/17 01:23:48;;;;;;;5.47;2.70;;;;;;;5.83;100.00;95170.72;4987281;28;20526;-77
2023/10/17 01:26:23;;;;;;;8.70;2.78;;;;;;;5.79;100.00;95174.50;5005016;28;20419;-76
2023/10/17 01:28:50;;;;;;;8.45;3.40;;;;;;;5.79;100.00;95177.06;5004476;28;20045;-74
2023/10/17 01:31:22;;;;;;;4.35;2.80;;;;;;;5.83;100.00;95182.75;5003641;28;20017;-77
2023/10/17 01:33:49;;;;;;;4.22;2.90;;;;;;;5.97;100.00;95178.97;5005320;28;20037;-77
2023/10/17 01:36:16;;;;;;;4.32;2.55;;;;;;;5.93;100.00;95187.91;5011576;28;21040;-76
2023/10/17 01:38:42;;;;;;;4.63;2.63;;;;;;;5.98;100.00;95190.88;5022080;28;20021;-76
2023/10/17 01:41:10;;;;;;;3.50;2.88;;;;;;;5.98;100.00;95185.72;5003313;28;20821;-77
2023/10/17 01:43:40;;;;;;;3.72;2.97;;;;;;;6.04;100.00;95188.56;5003864;28;20072;-76
2023/10/17 01:46:11;;;;;;;8.90;3.35;;;;;;;5.92;100.00;95178.56;5021925;28;20022;-75
2023/10/17 01:48:37;;;;;;;7.97;3.30;;;;;;;5.79;100.00;95171.91;4997638;28;20046;-76
2023/10/17 01:51:12;;;;;;;5.60;3.60;;;;;;;5.77;100.00;95178.16;5004668;28;20091;-76
2023/10/17 01:53:39;;;;;;;10.63;3.25;;;;;;;5.82;100.00;95168.25;5020970;28;20117;-78
2023/10/17 01:56:14;;;;;;;4.63;3.40;;;;;;;5.97;100.00;95174.66;5005364;28;20022;-76
2023/10/17 01:58:50;;;;;;;10.68;3.47;;;;;;;6.00;100.00;95173.56;5021555;28;20057;-79
2023/10/17 02:01:24;;;;;;;4.68;3.20;;;;;;;6.00;100.00;95183.84;4994960;28;20457;-77
2023/10/17 02:03:53;;;;;;;3.67;3.08;;;;;;;6.02;100.00;95176.78;5013583;28;20155;-76
2023/10/17 02:06:22;;;;;;;7.93;3.30;;;;;;;5.97;100.00;95181.56;5003278;28;20037;-76
2023/10/17 02:08:47;;;;;;;8.90;3.28;;;;;;;5.89;100.00;95182.22;5021896;28;20033;-77
2023/10/17 02:11:26;;;;;;;3.72;2.80;;;;;;;5.87;100.00;95193.59;5002973;28;20048;-79
2023/10/17 02:13:53;;;;;;;4.60;3.20;;;;;;;5.86;100.00;95181.69;5005609;28;20083;-77
2023/10/17 02:16:19;;;;;;;3.78;3.28;;;;;;;5.81;100.00;95180.28;5003747;28;20048;-76
2023/10/17 02:18:45;;;;;;;10.82;3.90;;;;;;;5.87;100.00;95180.75;5002775;28;20025;-76
2023/10/17 02:21:12;;;;;;;5.97;3.42;;;;;;;5.90;100.00;95177.91;5004197;28;20025;-76
2023/10/17 02:23:43;;;;;;;9.55;3.30;;;;;;;5.82;100.00;95166.50;5001931;28;20041;-76
2023/10/17 02:26:11;;;;;;;11.38;3.80;;;;;;;5.70;100.00;95166.78;5005166;28;20021;-76
2023/10/17 02:28:46;;;;;;;6.13;3.53;;;;;;;5.71;100.00;95166.66;5002095;28;20045;-77
2023/10/17 02:31:16;;;;;;;6.18;3.80;;;;;;;5.69;100.00;95160.84;5005053;28;20060;-77
2023/10/17 02:33:44;;;;;;;;;;;;;;;5.67;100.00;95170.44;5034802;28;20025;-76
2023/10/17 02:36:13;;;;;;;4.65;3.58;;;;;;;5.67;100.00;95151.66;5002993;28;19913;-76
2023/10/17 02:38:45;;;;;;;8.57;4.43;;;;;;;5.68;100.00;95164.34;5003884;28;20033;-77
2023/10/17 02:41:21;;;;;;;6.93;3.30;;;;;;;5.67;100.00;95167.88;5002189;28;20538;-78
2023/10/17 02:43:56;;;;;;;5.32;3.72;;;;;;;5.67;100.00;95162.75;5004762;28;20029;-76
2023/10/17 02:46:26;;;;;;;7.20;3.60;;;;;;;5.68;100.00;95174.63;4987096;28;20048;-76
2023/10/17 02:48:52;;;;;;;6.90;3.75;;;;;;;5.57;100.00;95169.63;5003338;28;20029;-77
2023/10/17 02:53:50;;;;;;;6.70;4.03;;;;;;;5.52;100.00;95158.94;5020335;28;20039;-77
2023/10/17 02:56:18;;;;;;;7.38;4.00;;;;;;;5.63;100.00;95175.97;4988404;28;20032;-77
2023/10/17 02:58:48;;;;;;;9.32;4.00;;;;;;;5.56;100.00;95172.31;5019218;28;20049;-76
2023/10/17 03:01:14;;;;;;;5.38;4.40;;;;;;;5.60;100.00;95177.06;5007169;28;20036;-77
2023/10/17 03:03:49;;;;;;;8.10;3.90;;;;;;;5.50;100.00;95171.09;5012829;28;20082;-77
2023/10/17 03:06:16;;;;;;;5.35;3.72;;;;;;;5.47;100.00;95176.50;5002670;28;20506;-76
2023/10/17 03:08:49;;;;;;;8.57;4.32;;;;;;;5.56;100.00;95175.69;5003477;28;20042;-77
2023/10/17 03:11:16;;;;;;;6.07;3.65;;;;;;;5.54;100.00;95169.91;5002753;28;20021;-77
2023/10/17 03:13:43;;;;;;;5.28;3.47;;;;;;;5.55;100.00;95163.81;5021075;28;20034;-77
2023/10/17 03:16:25;;;;;;;10.07;4.47;;;;;;;5.64;100.00;95170.72;5018870;28;20133;-76
2023/10/17 03:18:51;;;;;;;5.40;3.25;;;;;;;5.64;100.00;95175.84;5005374;28;20041;-76
2023/10/17 03:21:20;;;;;;;7.00;4.55;;;;;;;5.65;100.00;95169.75;5021145;28;20029;-76
2023/10/17 03:23:49;;;;;;;7.13;4.47;;;;;;;5.66;100.00;95176.50;5003101;28;20028;-76
2023/10/17 03:26:18;;;;;;;;;;;;;;;5.65;100.00;95174.88;5021381;28;20025;-76
2023/10/17 03:28:45;;;;;;;7.45;4.78;;;;;;;5.63;100.00;95179.34;5019947;28;20023;-76
2023/10/17 03:31:11;;;;;;;8.20;3.60;;;;;;;5.65;100.00;95186.94;5003272;28;20084;-76
2023/10/17 03:33:42;;;;;;;5.50;4.38;;;;;;;5.65;100.00;95190.31;5001311;28;20021;-76
2023/10/17 03:36:34;;;;;;;13.55;4.43;;;;;;;5.67;100.00;95185.84;5020281;28;20041;-77
2023/10/17 03:38:53;;;;;;;6.03;3.90;;;;;;;5.64;100.00;95178.44;5005827;28;20116;-76
2023/10/17 03:41:24;;;;;;;7.72;4.35;;;;;;;5.68;100.00;95177.19;5010916;28;20040;-78
2023/10/17 03:43:52;;;;;;;;;;;;;;;5.66;100.00;95179.09;5009524;28;20094;-76
2023/10/17 03:46:25;;;;;;;7.70;4.37;;;;;;;5.66;100.00;95184.22;5005254;28;19917;-76
2023/10/17 03:48:57;;;;;;;7.28;5.20;;;;;;;5.66;100.00;95186.78;5007323;28;20500;-76
2023/10/17 03:51:24;;;;;;;8.65;4.35;;;;;;;5.68;100.00;95184.09;5006634;28;20037;-77
2023/10/17 03:53:53;;;;;;;7.45;4.90;;;;;;;5.70;100.00;95175.31;5032001;28;20052;-76
2023/10/17 03:56:35;;;;;;;5.72;5.00;;;;;;;5.63;100.00;95181.13;5005930;28;20025;-77
2023/10/17 04:01:39;;;;;;;8.98;4.95;;;;;;;5.60;100.00;95179.63;5015311;28;20037;-76
2023/10/17 04:04:05;;;;;;;4.63;4.18;;;;;;;5.57;100.00;95179.91;5029433;28;20056;-77
2023/10/17 04:06:40;;;;;;;8.52;4.95;;;;;;;5.62;100.00;95184.66;5005768;28;20126;-77
2023/10/17 04:11:44;;;;;;;8.35;4.93;;;;;;;5.68;100.00;95182.31;5006073;28;20403;-75
2023/10/17 04:14:11;;;;;;;7.63;5.32;;;;;;;5.65;100.00;95190.31;4989659;28;20570;-76
2023/10/17 04:16:39;;;;;;;6.43;5.05;;;;;;;5.62;100.00;95182.09;5003984;28;20505;-76
2023/10/17 04:19:16;;;;;;;6.65;6.05;;;;;;;5.61;100.00;95175.31;5013202;28;20022;-75
2023/10/17 04:24:34;;;;;;;7.47;6.38;;;;;;;5.63;100.00;95188.81;5022999;28;20043;-75
2023/10/17 04:29:42;;;;;;;10.77;5.93;;;;;;;5.68;100.00;95195.16;5006064;28;20053;-76
2023/10/17 04:32:13;;;;;;;7.68;5.45;;;;;;;5.68;100.00;95197.72;5009967;28;20026;-76
2023/10/17 04:34:48;;;;;;;7.85;5.72;;;;;;;5.71;100.00;95199.25;5023419;28;20068;-77
2023/10/17 04:37:24;;;;;;;6.43;5.93;;;;;;;5.71;100.00;95194.09;5013534;28;20056;-80
2023/10/17 04:39:50;;;;;;;9.95;5.80;;;;;;;5.71;100.00;95194.09;5041437;28;20037;-76
2023/10/17 04:42:34;;;;;;;8.02;4.80;;;;;;;5.75;100.00;95201.41;5004251;28;20029;-78
2023/10/17 04:45:05;;;;;;;5.43;4.72;;;;;;;5.81;100.00;95190.56;5006245;28;20556;-78
2023/10/17 04:47:32;;;;;;;9.32;5.28;;;;;;;5.92;100.00;95187.09;5023394;28;20021;-76
2023/10/17 04:49:57;;;;;;;6.00;5.40;;;;;;;5.90;100.00;95178.72;4984463;28;20542;-78
2023/10/17 04:52:40;;;;;;;7.97;4.97;;;;;;;5.94;100.00;95180.03;5036076;28;20017;-79
2023/10/17 04:55:21;;;;;;;7.47;4.78;;;;;;;5.98;100.00;95180.59;5009391;28;20021;-77
2023/10/17 05:03:14;;;;;;;12.30;4.88;;;;;;;6.25;100.00;95180.69;5005501;28;20254;-75
2023/10/17 05:08:17;;;;;;;7.47;4.25;;;;;;;6.44;100.00;95183.22;5005954;28;20053;-76
2023/10/17 06:19:15;;;;;;;4.18;2.25;;;;;;;10.06;100.00;95175.59;5022804;28;20048;-77
2023/10/17 06:22:51;;;;;;;6.95;3.13;;;;;;;10.54;99.71;95172.19;5030382;28;20479;-77
2023/10/17 06:26:59;;;;;;;4.53;2.25;;;;;;;11.34;90.80;95180.66;5006441;28;20124;-78
2023/10/17 06:30:26;;;;;;;4.28;2.28;;;;;;;11.04;94.31;95174.47;5021565;28;20112;-78
2023/10/17 06:35:13;;;;;;;3.08;2.38;;;;;;;12.12;84.88;95176.94;4997005;28;20025;-77
2023/10/17 06:37:42;;;;;;;6.03;2.35;;;;;;;11.49;87.62;95177.16;4988076;28;20056;-77
2023/10/17 06:40:15;;;;;;;3.30;1.77;;;;;;;11.31;88.30;95179.22;5022426;28;20424;-77
2023/10/17 06:42:49;;;;;;;7.13;2.33;;;;;;;11.69;87.91;95181.94;5004152;28;20590;-77
2023/10/17 06:45:18;;;;;;;3.00;1.88;;;;;;;12.19;84.02;95187.44;5021862;28;20022;-78
2023/10/17 06:47:48;;;;;;;3.97;1.92;;;;;;;14.93;67.51;95169.97;5002285;28;20033;-78
2023/10/17 06:55:21;;;;;;;4.50;1.92;;;;;;;19.62;47.98;95157.72;5003363;28;20030;-77
2023/10/17 06:57:50;;;;;;;;;;;;;;;18.57;50.02;95160.63;5003818;28;20077;-77
2023/10/17 07:00:18;;;;;;;3.30;1.40;;;;;;;20.83;45.04;95157.41;5020713;28;19975;-77
2023/10/17 07:02:48;;;;;;;4.60;2.00;;;;;;;20.47;44.25;95159.19;5012872;28;20506;-78
2023/10/17 07:05:14;;;;;;;7.50;1.73;;;;;;;18.74;48.33;95153.81;5004186;28;20083;-77
2023/10/17 07:07:41;;;;;;;3.55;1.70;;;;;;;19.10;46.67;95159.13;5019120;28;20021;-78
2023/10/17 07:10:24;;;;;;;2.92;2.05;;;;;;;19.31;44.78;95152.63;5020855;28;20141;-78
2023/10/17 07:13:31;;;;;;;7.47;1.70;;;;;;;17.83;47.81;95150.81;5003592;28;20094;-79
2023/10/17 07:16:11;;;;;;;5.40;1.42;;;;;;;16.20;51.78;95145.72;5029028;28;20151;-79
2023/10/17 07:18:44;;;;;;;3.33;1.35;;;;;;;14.14;60.03;95142.50;5030559;28;20041;-79
2023/10/17 07:23:41;;;;;;;6.63;1.60;;;;;;;13.60;64.50;95137.00;5019257;28;20029;-76
2023/10/17 07:26:10;;;;;;;3.85;1.60;;;;;;;14.31;62.52;95143.88;5021912;28;20144;-77
2023/10/17 07:28:42;;;;;;;4.53;1.45;;;;;;;14.26;60.16;95133.19;5024665;28;20025;-77
2023/10/17 07:31:11;;;;;;;4.70;1.02;;;;;;;13.72;62.95;95138.13;5007912;28;20025;-77
2023/10/17 07:33:38;;;;;;;6.28;1.17;;;;;;;13.28;64.41;95132.22;5006685;28;20408;-78
2023/10/17 07:36:06;;;;;;;7.25;1.30;;;;;;;12.81;64.98;95130.81;5030828;28;20093;-77
2023/10/17 07:38:31;;;;;;;3.30;1.20;;;;;;;12.69;67.73;95127.88;5026874;28;20499;-79
2023/10/17 07:41:12;;;;;;;6.30;2.72;;;;;;;12.67;69.27;95122.03;5011757;28;20031;-77
2023/10/17 07:43:43;;;;;;;4.07;1.73;;;;;;;12.82;68.31;95134.22;4993119;28;20037;-76
2023/10/17 07:46:15;;;;;;;4.40;1.92;;;;;;;12.65;68.25;95131.78;4992373;28;20026;-78
2023/10/17 07:48:48;;;;;;;4.80;1.95;;;;;;;12.83;65.04;95126.25;5008457;28;20040;-78
2023/10/17 07:51:15;;;;;;;5.05;1.70;;;;;;;13.16;63.56;95135.28;5017408;28;20600;-78
2023/10/17 07:53:45;;;;;;;5.72;1.40;;;;;;;12.98;61.81;95140.03;4994580;28;20025;-79
2023/10/17 07:56:26;;;;;;;4.03;1.27;;;;;;;12.55;59.06;95122.66;4994892;28;20072;-78
2023/10/17 07:59:15;;;;;;;6.22;1.80;;;;;;;12.80;62.64;95136.19;5014087;28;20860;-77
2023/10/17 08:01:45;;;;;;;6.10;1.15;;;;;;;12.68;59.35;95141.06;5024307;28;20181;-78
2023/10/17 08:04:17;;;;;;;3.45;0.93;;;;;;;12.47;58.02;95128.75;4994732;28;20061;-79
2023/10/17 08:06:44;;;;;;;2.08;1.10;;;;;;;12.40;59.03;95135.63;5017208;28;20021;-79
2023/10/17 08:11:51;;;;;;;2.30;1.08;;;;;;;12.63;54.84;95132.97;5018348;28;20037;-79
2023/10/17 08:14:18;;;;;;;7.68;1.73;;;;;;;12.78;55.85;95130.38;5041588;28;20021;-77
2023/10/17 08:16:46;;;;;;;7.03;1.08;;;;;;;12.99;55.49;95123.47;5007874;28;20090;-78
2023/10/17 08:19:22;;;;;;;2.22;1.00;;;;;;;13.22;54.25;95128.56;5020772;28;20041;-78
2023/10/17 08:27:17;;;;;;;1.90;1.00;;;;;;;13.68;52.35;95123.84;5023294;28;20415;-79
2023/10/17 08:29:45;;;;;;;4.18;0.85;;;;;;;12.94;51.91;95114.59;5000983;28;20036;-78
2023/10/17 08:34:46;;;;;;;1.63;1.05;;;;;;;12.98;53.19;95121.84;5032150;28;20025;-79
2023/10/17 08:37:18;;;;;;;2.45;0.80;;;;;;;13.11;53.56;95118.63;5011759;28;20466;-78
2023/10/17 08:42:12;;;;;;;1.10;0.80;;;;;;;12.95;54.62;95122.22;5036871;28;20021;-78
2023/10/17 08:44:39;;;;;;;2.25;1.02;;;;;;;13.17;53.98;95115.28;5021078;28;20047;-77
2023/10/17 08:47:19;;;;;;;4.00;0.90;;;;;;;13.05;53.97;95120.13;5039833;28;20029;-77
2023/10/17 08:49:44;;;;;;;;;;;;;;;13.23;54.54;95124.19;5025786;28;20029;-79
2023/10/17 08:52:35;;;;;;;1.13;0.70;;;;;;;13.23;54.44;95126.78;5012166;28;19975;-79
2023/10/17 08:55:02;;;;;;;2.90;1.00;;;;;;;13.05;53.88;95117.53;4985064;28;20026;-77
2023/10/17 08:57:29;;;;;;;2.00;1.10;;;;;;;13.30;54.38;95117.25;5015510;28;20041;-78
2023/10/17 09:02:48;;;;;;;2.65;0.80;;;;;;;13.10;54.91;95098.81;5038307;28;20048;-78
2023/10/17 09:05:33;;;;;;;2.92;0.82;;;;;;;13.05;55.08;95101.13;5028975;28;20039;-77
2023/10/17 09:08:01;;;;;;;1.80;1.20;;;;;;;13.24;55.90;95102.38;5020665;28;20033;-77
2023/10/17 09:10:51;;;;;;;3.70;0.85;;;;;;;13.36;55.68;95116.50;5011074;28;20487;-77
2023/10/17 09:15:57;;;;;;;1.58;0.98;;;;;;;12.99;56.43;95120.06;5018036;28;19913;-80
2023/10/17 09:18:31;;;;;;;3.10;1.25;;;;;;;13.09;55.11;95120.63;5034689;28;20040;-78
2023/10/17 09:21:03;;;;;;;3.03;0.82;;;;;;;12.80;55.71;95123.22;5008745;28;20037;-79
2023/10/17 09:23:30;;;;;;;4.35;1.00;;;;;;;13.13;56.01;95117.44;5020575;28;20060;-78
2023/10/17 09:25:58;;;;;;;2.65;0.90;;;;;;;12.92;55.53;95104.38;5017109;28;20499;-80
2023/10/17 09:28:28;;;;;;;3.60;1.70;;;;;;;12.79;55.89;95111.19;5029693;28;20038;-80
2023/10/17 09:31:20;;;;;;;1.77;1.27;;;;;;;12.93;55.73;95107.78;5022779;28;20419;-79
2023/10/17 09:33:48;;;;;;;2.78;0.90;;;;;;;13.18;54.91;95098.72;5003741;28;20447;-77
2023/10/17 09:36:17;;;;;;;4.50;1.15;;;;;;;13.12;55.53;95107.25;5031978;28;20028;-80
2023/10/17 09:38:45;;;;;;;;;;;;;;;13.36;55.74;95095.69;5001740;28;20037;-79
2023/10/17 09:41:17;;;;;;;4.90;1.40;;;;;;;13.47;55.09;95082.22;5015665;28;19963;-80
2023/10/17 09:43:44;;;;;;;3.38;1.27;;;;;;;12.84;58.52;95081.09;5034860;28;20083;-80
2023/10/17 09:46:12;;;;;;;2.58;1.23;;;;;;;13.30;58.61;95075.63;5037500;28;20052;-79
2023/10/17 09:48:41;;;;;;;1.65;1.10;;;;;;;13.28;58.77;95067.22;5016338;28;20037;-78
2023/10/17 09:51:10;;;;;;;3.17;1.20;;;;;;;13.11;59.12;95066.63;4999710;28;20023;-80
2023/10/17 09:53:36;;;;;;;2.75;1.05;;;;;;;13.28;58.87;95064.59;5018559;28;20088;-78
2023/10/17 09:56:06;;;;;;;1.73;1.27;;;;;;;13.66;58.39;95066.78;4992397;28;20499;-79
2023/10/17 09:58:37;;;;;;;3.22;1.33;;;;;;;13.46;58.79;95065.78;5016791;28;20042;-79
2023/10/17 10:01:20;;;;;;;2.53;1.10;;;;;;;13.53;58.48;95055.44;5015142;28;20030;-78
2023/10/17 10:03:51;;;;;;;3.58;1.23;;;;;;;13.54;58.36;95059.66;5005921;28;20121;-79
2023/10/17 10:06:22;;;;;;;2.00;1.20;;;;;;;13.54;58.94;95047.47;5010480;28;20025;-80
2023/10/17 10:08:48;;;;;;;5.50;1.50;;;;;;;13.57;60.58;95043.69;4996933;28;20037;-78
2023/10/17 10:11:14;;;;;;;4.50;1.50;;;;;;;13.79;58.87;95053.09;5003351;28;20022;-81
2023/10/17 10:14:03;;;;;;;2.92;1.90;;;;;;;13.56;59.96;95055.06;5081043;22;20053;-78
2023/10/17 10:16:51;;;;;;;3.17;1.40;;;;;;;13.63;60.18;95051.56;5029868;28;20510;-80
2023/10/17 10:19:17;;;;;;;4.35;1.42;;;;;;;13.59;60.22;95049.50;5040916;22;20115;-78
2023/10/17 10:21:55;;;;;;;1.50;1.30;;;;;;;13.12;61.34;95048.25;4995796;28;20403;-77
2023/10/17 10:24:40;;;;;;;5.50;1.20;;;;;;;13.44;61.69;95046.16;5016771;28;20046;-78
2023/10/17 10:27:15;;;;;;;2.42;1.50;;;;;;;13.90;59.97;95041.38;5021039;28;20104;-81
2023/10/17 10:29:54;;;;;;;3.53;1.20;;;;;;;13.72;60.08;95041.81;5013688;28;20038;-79
2023/10/17 10:32:33;;;;;;;2.30;1.48;;;;;;;13.54;60.23;95041.44;5022212;28;20025;-79
2023/10/17 10:34:59;;;;;;;2.45;1.63;;;;;;;13.65;60.04;95039.16;5006735;28;20037;-76
2023/10/17 10:37:25;;;;;;;4.75;1.67;;;;;;;13.82;60.15;95026.66;5015255;28;20030;-77
2023/10/17 10:40:30;;;;;;;1.75;1.48;;;;;;;13.71;60.51;95027.16;5014942;28;20547;-77
2023/10/17 10:43:07;;;;;;;1.83;1.33;;;;;;;13.78;59.43;95022.03;5023601;28;20120;-81
2023/10/17 10:45:50;;;;;;;2.45;1.48;;;;;;;13.63;59.49;95027.31;5015844;28;20030;-77
2023/10/17 10:48:17;;;;;;;1.85;1.45;;;;;;;13.54;58.35;94999.81;5071486;23;20066;-79
2023/10/17 10:50:48;;;;;;;3.15;1.23;;;;;;;13.40;60.13;95005.88;5008170;28;20666;-77
2023/10/17 10:53:29;;;;;;;4.70;1.48;;;;;;;13.79;59.33;95018.44;4991295;28;20032;-80
2023/10/17 10:55:59;;;;;;;3.67;1.55;;;;;;;14.06;58.25;95020.25;4974986;28;20928;-80
2023/10/17 10:58:26;;;;;;;2.35;1.27;;;;;;;13.58;58.75;95016.69;4997283;28;20030;-79
2023/10/17 11:00:56;;;;;;;2.22;1.52;;;;;;;13.39;58.93;95007.69;4993897;28;20042;-77
2023/10/17 11:03:22;;;;;;;4.07;1.40;;;;;;;13.53;58.13;95013.81;4993140;28;20036;-77
2023/10/17 11:05:55;;;;;;;4.10;1.20;;;;;;;13.51;59.11;95002.78;4999009;28;20049;-78
2023/10/17 11:08:25;;;;;;;2.58;1.40;;;;;;;13.88;58.23;95014.69;4995715;28;20122;-78
2023/10/17 11:10:51;;;;;;;3.28;1.70;;;;;;;13.78;58.44;95007.22;4990431;28;20049;-79
2023/10/17 11:13:21;;;;;;;4.25;1.85;;;;;;;13.71;58.25;95014.97;4986761;28;20026;-80
2023/10/17 11:15:50;;;;;;;2.92;1.60;;;;;;;13.82;57.53;95007.63;4988625;28;20030;-79
2023/10/17 11:18:24;;;;;;;3.85;1.70;;;;;;;13.65;58.21;94999.28;5014105;28;20030;-78
2023/10/17 11:20:55;;;;;;;2.53;1.60;;;;;;;13.60;57.36;94991.25;4985313;28;20029;-79
2023/10/17 11:23:26;;;;;;;2.70;1.27;;;;;;;13.76;56.73;94993.59;4993545;28;20045;-79
2023/10/17 11:26:03;;;;;;;1.55;1.15;;;;;;;13.47;56.74;94991.16;5004102;28;20006;-78
2023/10/17 11:28:29;;;;;;;2.08;1.17;;;;;;;13.54;56.38;94992.00;4977829;28;20141;-78
2023/10/17 11:30:58;;;;;;;2.15;1.23;;;;;;;13.75;55.40;94991.97;4992301;28;20482;-78
2023/10/17 11:33:37;;;;;;;5.03;1.38;;;;;;;14.07;54.40;94980.16;4999454;28;20034;-78
2023/10/17 11:36:12;;;;;;;2.38;1.35;;;;;;;13.67;53.78;94972.09;4999560;28;20074;-78
2023/10/17 11:38:38;;;;;;;3.65;1.20;;;;;;;13.64;54.24;94959.47;4996841;28;20038;-80
2023/10/17 11:41:04;;;;;;;2.00;1.25;;;;;;;14.06;53.77;94947.31;4982396;28;20045;-75
2023/10/17 11:43:35;;;;;;;3.63;1.25;;;;;;;14.02;52.90;94943.50;4975208;28;20140;-78
2023/10/17 11:46:03;;;;;;;6.07;1.30;;;;;;;14.21;52.92;94948.00;4983676;28;20104;-78
2023/10/17 11:48:36;;;;;;;3.13;1.45;;;;;;;14.08;53.81;94948.72;4983978;28;20456;-78
2023/10/17 11:51:05;;;;;;;2.60;1.48;;;;;;;13.62;54.76;94942.41;5002077;28;20026;-76
2023/10/17 11:53:34;;;;;;;3.90;1.33;;;;;;;13.97;55.51;94932.81;4974386;28;20038;-78
2023/10/17 11:56:01;;;;;;;3.63;1.30;;;;;;;13.50;55.92;94923.94;4991728;28;20030;-79
2023/10/17 11:58:29;;;;;;;5.88;1.95;;;;;;;13.81;56.05;94925.31;4975710;28;20034;-78
2023/10/17 12:00:55;;;;;;;2.30;1.42;;;;;;;13.83;55.49;94916.34;4970137;28;20290;-79
2023/10/17 12:03:21;;;;;;;2.97;1.40;;;;;;;13.98;55.70;94919.63;4994025;28;20125;-80
2023/10/17 12:05:47;;;;;;;7.45;1.50;;;;;;;13.61;57.53;94928.59;5004347;28;20390;-76
2023/10/17 12:08:22;;;;;;;3.42;1.80;;;;;;;13.50;58.35;94926.53;4999283;28;20037;-77
2023/10/17 12:10:51;;;;;;;2.13;1.20;;;;;;;13.73;58.39;94931.50;4972133;28;20050;-75
2023/10/17 12:13:20;;;;;;;4.35;1.30;;;;;;;13.52;59.26;94931.53;4994252;28;20061;-77
2023/10/17 12:15:46;;;;;;;4.72;1.40;;;;;;;13.70;57.73;94932.69;4988260;28;20026;-77
2023/10/17 12:18:12;;;;;;;5.97;1.75;;;;;;;13.52;59.70;94927.13;5011696;28;20089;-76
2023/10/17 12:20:41;;;;;;;4.65;1.65;;;;;;;13.64;59.84;94930.84;4991856;28;20503;-78
2023/10/17 12:23:11;;;;;;;3.00;1.70;;;;;;;13.47;60.20;94939.09;4991339;28;20038;-78
2023/10/17 12:25:37;;;;;;;6.53;1.58;;;;;;;13.24;59.85;94931.53;4994710;28;20030;-80
2023/10/17 12:28:03;;;;;;;5.05;1.90;;;;;;;13.35;59.60;94925.00;4994604;28;20117;-77
2023/10/17 12:30:35;;;;;;;2.53;1.85;;;;;;;13.44;60.21;94936.88;4988433;28;20034;-77
2023/10/17 12:33:01;;;;;;;9.95;2.10;;;;;;;13.31;61.09;94932.38;4992294;28;20026;-77
2023/10/17 12:35:27;;;;;;;12.82;1.88;;;;;;;13.09;62.20;94934.19;4997166;28;20434;-77
2023/10/17 12:37:57;;;;;;;6.25;1.98;;;;;;;13.24;62.00;94925.50;4989682;28;20465;-76
2023/10/17 12:40:23;;;;;;;3.85;1.33;;;;;;;13.02;62.69;94928.09;4980732;28;20038;-78
2023/10/17 12:42:51;;;;;;;6.43;2.00;;;;;;;12.97;63.26;94930.44;4989121;28;20465;-78
2023/10/17 12:45:17;;;;;;;3.75;2.03;;;;;;;12.91;63.69;94922.56;4966035;28;20038;-79
2023/10/17 12:47:44;;;;;;;4.55;1.55;;;;;;;12.91;64.28;94919.97;4986434;28;20057;-76
2023/10/17 12:50:12;;;;;;;4.75;1.58;;;;;;;12.89;64.41;94927.97;5018263;28;20049;-79
2023/10/17 12:52:39;;;;;;;8.25;1.45;;;;;;;12.65;65.20;94929.13;4991357;28;20061;-79
2023/10/17 12:55:05;;;;;;;4.18;1.33;;;;;;;12.40;66.83;94934.81;4988464;28;20111;-79
2023/10/17 12:57:31;;;;;;;2.72;1.75;;;;;;;12.34;67.77;94932.94;5012422;28;20030;-75
2023/10/17 12:59:59;;;;;;;3.90;1.67;;;;;;;12.26;68.82;94930.47;5020785;28;20026;-77
2023/10/17 13:02:27;;;;;;;4.07;1.77;;;;;;;12.30;69.52;94942.09;4993727;28;20022;-76
2023/10/17 13:04:58;;;;;;;7.13;2.63;;;;;;;12.11;71.14;94933.88;4986240;28;20017;-78
2023/10/17 13:07:25;;;;;;;4.55;2.25;;;;;;;12.12;72.49;94935.50;5011755;28;20034;-79
2023/10/17 13:09:50;;;;;;;4.93;2.65;;;;;;;12.13;73.65;94936.31;4983041;28;20049;-77
2023/10/17 13:12:15;;;;;;;3.95;1.80;;;;;;;12.12;74.67;94934.69;5005434;28;20040;-77
2023/10/17 13:14:41;;;;;;;8.20;2.45;;;;;;;11.97;75.80;94934.72;4981769;28;20506;-77
2023/10/17 13:17:11;;;;;;;5.40;2.03;;;;;;;11.41;76.87;94876.41;5092276;23;20060;-81
2023/10/17 13:19:40;;;;;;;4.88;2.35;;;;;;;11.64;77.54;94923.03;5039323;28;20037;-78
2023/10/17 13:22:08;;;;;;;3.78;2.17;;;;;;;11.67;79.98;94940.81;5050892;28;20024;-77
2023/10/17 13:24:34;;;;;;;5.32;2.08;;;;;;;11.58;81.20;94934.94;5011794;28;20041;-79
2023/10/17 13:27:00;;;;;;;6.65;2.30;;;;;;;11.50;83.31;94944.56;5015758;28;20037;-77
2023/10/17 13:29:26;;;;;;;5.03;2.00;;;;;;;11.50;85.63;94952.34;5013984;28;20036;-79
2023/10/17 13:31:51;;;;;;;7.97;2.47;;;;;;;11.38;86.11;94951.16;5046354;28;20040;-79
2023/10/17 13:34:22;;;;;;;3.70;2.33;;;;;;;11.45;88.16;94950.28;5025187;28;20251;-79
2023/10/17 13:36:47;;;;;;;8.60;2.45;;;;;;;11.22;90.47;94951.28;5042176;28;20021;-76
2023/10/17 13:39:13;;;;;;;5.65;2.30;;;;;;;11.23;92.97;94950.31;5041297;28;20095;-76
2023/10/17 13:41:40;;;;;;;6.88;2.92;;;;;;;11.16;95.95;94954.56;5025629;28;20044;-76
2023/10/17 13:44:05;;;;;;;8.30;2.40;;;;;;;11.26;97.80;94937.00;5024788;28;20521;-77
2023/10/17 13:46:32;;;;;;;6.70;2.60;;;;;;;11.11;100.00;94942.94;5026483;28;20021;-80
2023/10/17 13:48:58;;;;;;;6.85;3.10;;;;;;;11.16;99.98;94939.84;5010592;28;20029;-76
2023/10/17 13:51:34;;;;;;;9.07;2.88;;;;;;;11.14;100.00;94947.00;5041005;28;20033;-77